MZBZ/BZE METAR and TAF weather

Enter ICAO airport designator
Station Type Date Time Source
MZBZ METAR 2019/08/23 15:00 UTC NOAA

MZBZ 231500Z 12007KT 9999 FEW025 32/26 A2996 Q1014 NOSIG


Station Type Date Time Source
MZBZ Decoded METAR 2019/08/23 15:00 UTC NOAA

Station name not available
Aug 23, 2019 - 11:00 AM EDT / 2019.08.23 1500 UTC
Wind: from the ESE (120 degrees) at 8 MPH (7 KT):0
Visibility: greater than 7 mile(s):0
Sky conditions: mostly clear
Temperature: 89 F (32 C)
Heat index: 102.9 F (39.4 C):1
Dew Point: 78 F (26 C)
Relative Humidity: 70%
Pressure (altimeter): 29.96 in. Hg (1014 hPa)
ob: MZBZ 231500Z 12007KT 9999 FEW025 32/26 A2996 Q1014 NOSIG
cycle: 15

Station Type Date Time Source
MZBZ TAF 2019/08/23 18:18 UTC NOAA

TAF TAF MZBZ 231500Z 2318/2418 11008KT 9999 SCT024

Example: see airport list